createdAt,value
2022-10-03T00:00:43.213Z,100607.09
2022-10-03T00:03:58.307Z,100619.44
2022-10-03T00:07:16.542Z,100621.00
2022-10-03T00:10:28.918Z,100631.47
2022-10-03T00:13:41.659Z,100619.06
2022-10-03T00:16:49.898Z,100619.94
2022-10-03T00:20:03.891Z,100610.19
2022-10-03T00:23:12.384Z,100605.69
2022-10-03T00:26:30.773Z,100603.25
2022-10-03T00:30:02.938Z,100625.94
2022-10-03T00:33:17.345Z,100630.56
2022-10-03T00:36:27.125Z,100633.81
2022-10-03T00:39:50.580Z,100633.25
2022-10-03T00:43:15.958Z,100635.78
2022-10-03T00:46:54.060Z,100648.59
2022-10-03T00:50:20.772Z,100647.09
2022-10-03T00:53:37.923Z,100643.47
2022-10-03T00:56:55.911Z,100647.94
2022-10-03T01:00:17.744Z,100658.63
2022-10-03T01:03:40.638Z,100640.28
2022-10-03T01:06:50.248Z,100642.13
2022-10-03T01:10:09.530Z,100647.22
2022-10-03T01:13:32.666Z,100644.09
2022-10-03T01:16:45.592Z,100653.22
2022-10-03T01:20:08.480Z,100654.66
2022-10-03T01:23:47.080Z,100652.63
2022-10-03T01:27:02.694Z,100645.91
2022-10-03T01:30:24.861Z,100656.84
2022-10-03T01:33:35.060Z,100666.22
2022-10-03T01:36:46.488Z,100660.78
2022-10-03T01:39:55.476Z,100661.88
2022-10-03T01:43:07.297Z,100663.66
2022-10-03T01:46:18.968Z,100666.09
2022-10-03T01:49:28.217Z,100663.59
2022-10-03T01:52:40.171Z,100658.97
2022-10-03T01:55:50.748Z,100649.53
2022-10-03T01:59:01.040Z,100653.63
2022-10-03T02:02:11.243Z,100654.53
2022-10-03T02:05:20.627Z,100652.91
2022-10-03T02:08:33.654Z,100660.28
2022-10-03T02:11:40.724Z,100658.09
2022-10-03T02:14:55.582Z,100666.75
2022-10-03T02:18:13.078Z,100663.91
2022-10-03T02:21:20.583Z,100669.59
2022-10-03T02:24:38.510Z,100682.47
2022-10-03T02:28:04.417Z,100680.09
2022-10-03T02:31:44.910Z,100680.06
2022-10-03T02:35:14.998Z,100679.81
2022-10-03T02:38:48.207Z,100676.31
2022-10-03T02:42:25.179Z,100687.66
2022-10-03T02:45:51.481Z,100697.97
2022-10-03T02:49:14.660Z,100697.41
2022-10-03T02:52:46.063Z,100693.81
2022-10-03T02:56:28.141Z,100692.00
2022-10-03T02:59:56.207Z,100704.44
2022-10-03T03:03:43.275Z,100705.31
2022-10-03T03:06:59.508Z,100713.16
2022-10-03T03:10:34.246Z,100700.91
2022-10-03T03:14:02.224Z,100711.44
2022-10-03T03:17:21.742Z,100716.97
2022-10-03T03:20:41.218Z,100725.53
2022-10-03T03:24:03.074Z,100714.53
2022-10-03T03:27:35.196Z,100726.81
2022-10-03T03:30:45.726Z,100713.03
2022-10-03T03:34:00.056Z,100717.66
2022-10-03T03:37:10.298Z,100721.47
2022-10-03T03:40:32.376Z,100722.56
2022-10-03T03:43:45.356Z,100729.88
2022-10-03T03:47:05.363Z,100729.03
2022-10-03T03:50:28.077Z,100737.03
2022-10-03T03:53:55.278Z,100743.78
2022-10-03T03:57:14.410Z,100746.88
2022-10-03T04:00:21.877Z,100747.09
2022-10-03T04:03:45.649Z,100756.22
2022-10-03T04:06:58.244Z,100755.59
2022-10-03T04:10:22.696Z,100761.94
2022-10-03T04:13:40.395Z,100760.56
2022-10-03T04:17:16.288Z,100755.56
2022-10-03T04:20:36.918Z,100774.41
2022-10-03T04:23:58.159Z,100767.94
2022-10-03T04:27:19.346Z,100770.13
2022-10-03T04:30:29.673Z,100767.41
2022-10-03T04:33:49.130Z,100773.22
2022-10-03T04:37:16.104Z,100768.13
2022-10-03T04:40:31.793Z,100778.41
2022-10-03T04:43:43.858Z,100767.41
2022-10-03T04:46:55.385Z,100771.72
2022-10-03T04:50:04.232Z,100770.47
2022-10-03T04:53:22.871Z,100776.19
2022-10-03T04:56:40.347Z,100788.09
2022-10-03T04:59:52.662Z,100783.31
2022-10-03T05:03:04.775Z,100779.81
2022-10-03T05:06:25.890Z,100783.31
2022-10-03T05:09:38.485Z,100793.41
2022-10-03T05:12:48.375Z,100795.16
2022-10-03T05:16:01.597Z,100794.06
2022-10-03T05:19:23.847Z,100779.75
2022-10-03T05:22:40.309Z,100783.78
2022-10-03T05:25:53.515Z,100784.00
2022-10-03T05:29:06.118Z,100794.09
2022-10-03T05:32:21.185Z,100796.81
2022-10-03T05:35:43.755Z,100805.97
2022-10-03T05:39:35.257Z,100806.31
2022-10-03T05:43:01.600Z,100799.09
2022-10-03T05:46:15.538Z,100809.56
2022-10-03T05:49:40.415Z,100813.16
2022-10-03T05:53:00.420Z,100823.72
2022-10-03T05:56:09.580Z,100823.47
2022-10-03T05:59:42.606Z,100824.28
2022-10-03T06:03:22.934Z,100835.31
2022-10-03T06:06:34.735Z,100831.31
2022-10-03T06:10:04.489Z,100840.75
2022-10-03T06:13:14.688Z,100843.53
2022-10-03T06:16:31.759Z,100847.97
2022-10-03T06:19:49.722Z,100853.34
2022-10-03T06:23:53.865Z,100850.59
2022-10-03T06:27:19.283Z,100848.06
2022-10-03T06:30:27.243Z,100858.88
2022-10-03T06:34:19.604Z,100873.47
2022-10-03T06:37:58.076Z,100873.63
2022-10-03T06:41:46.597Z,100880.19
2022-10-03T06:45:16.543Z,100879.91
2022-10-03T06:48:49.850Z,100891.97
2022-10-03T06:52:08.485Z,100890.88
2022-10-03T06:55:43.148Z,100895.41
2022-10-03T06:59:05.397Z,100897.16
2022-10-03T07:02:39.765Z,100894.72
2022-10-03T07:06:15.249Z,100902.00
2022-10-03T07:09:53.895Z,100906.94
2022-10-03T07:13:13.259Z,100910.03
2022-10-03T07:16:45.902Z,100910.63
2022-10-03T07:20:39.324Z,100914.41
2022-10-03T07:24:07.287Z,100908.13
2022-10-03T07:27:44.489Z,100903.59
2022-10-03T07:31:08.104Z,100911.50
2022-10-03T07:34:49.574Z,100912.66
2022-10-03T07:38:38.484Z,100915.38
2022-10-03T07:42:00.171Z,100920.03
2022-10-03T07:45:34.785Z,100925.97
2022-10-03T07:49:03.478Z,100930.19
2022-10-03T07:52:34.710Z,100941.84
2022-10-03T07:55:55.650Z,100946.63
2022-10-03T07:59:12.754Z,100944.22
2022-10-03T08:02:43.049Z,100955.56
2022-10-03T08:06:12.618Z,100962.44
2022-10-03T08:09:43.429Z,100963.16
2022-10-03T08:13:02.465Z,100959.69
2022-10-03T08:16:22.374Z,100965.34
2022-10-03T08:19:43.130Z,100966.69
2022-10-03T08:23:00.457Z,100975.47
2022-10-03T08:26:18.125Z,100975.66
2022-10-03T08:30:03.484Z,100980.06
2022-10-03T08:33:38.207Z,100988.00
2022-10-03T08:37:22.102Z,100976.53
2022-10-03T08:41:07.180Z,100979.22
2022-10-03T08:44:46.730Z,100973.66
2022-10-03T08:48:25.028Z,100979.22
2022-10-03T08:52:13.242Z,100980.41
2022-10-03T08:55:42.860Z,100984.63
2022-10-03T08:59:15.204Z,100988.34
2022-10-03T09:02:42.066Z,100990.66
2022-10-03T09:06:19.495Z,100989.28
2022-10-03T09:09:53.619Z,100994.47
2022-10-03T09:13:48.177Z,101004.34
2022-10-03T09:17:25.776Z,101002.16
2022-10-03T09:21:06.963Z,101003.88
2022-10-03T09:24:41.588Z,101006.41
2022-10-03T09:28:25.313Z,101019.78
2022-10-03T09:32:01.713Z,101005.72
2022-10-03T09:35:42.777Z,101013.72
2022-10-03T09:39:02.117Z,101008.88
2022-10-03T09:42:27.824Z,101005.03
2022-10-03T09:46:12.115Z,101014.31
2022-10-03T09:49:40.292Z,101022.91
2022-10-03T09:53:06.934Z,101016.56
2022-10-03T09:56:37.333Z,101015.44
2022-10-03T09:59:59.712Z,101016.25
2022-10-03T10:03:53.202Z,101027.34
2022-10-03T10:07:41.979Z,101023.03
2022-10-03T10:11:14.915Z,101006.13
2022-10-03T10:14:48.455Z,101017.47
2022-10-03T10:18:17.295Z,101020.00
2022-10-03T10:22:02.339Z,101022.56
2022-10-03T10:25:26.668Z,101030.66
2022-10-03T10:29:00.022Z,101030.47
2022-10-03T10:32:57.027Z,101027.75
2022-10-03T10:36:47.949Z,101039.22
2022-10-03T10:40:28.816Z,101032.31
2022-10-03T10:44:06.299Z,101026.53
2022-10-03T10:47:58.379Z,101017.34
2022-10-03T10:51:39.262Z,101030.91
2022-10-03T10:55:20.455Z,101033.94
2022-10-03T10:59:05.405Z,101024.25
2022-10-03T11:02:38.133Z,101020.28
2022-10-03T11:06:43.475Z,101014.94
2022-10-03T11:10:31.057Z,101012.25
2022-10-03T11:14:11.092Z,101024.69
2022-10-03T11:17:56.267Z,101010.09
2022-10-03T11:21:36.591Z,101012.09
2022-10-03T11:25:16.143Z,101027.69
2022-10-03T11:28:55.238Z,101017.50
2022-10-03T11:32:50.038Z,101017.75
2022-10-03T11:36:43.233Z,101019.03
2022-10-03T11:39:51.004Z,101016.91
2022-10-03T11:43:03.117Z,101017.75
2022-10-03T11:46:22.241Z,101031.78
2022-10-03T11:49:44.828Z,101004.84
2022-10-03T11:53:02.948Z,101007.59
2022-10-03T11:56:29.776Z,101008.47
2022-10-03T12:00:00.389Z,101015.00
2022-10-03T12:03:14.455Z,101023.16
2022-10-03T12:06:47.491Z,101013.59
2022-10-03T12:10:07.287Z,101010.97
2022-10-03T12:13:17.157Z,101013.25
2022-10-03T12:16:27.793Z,101025.06
2022-10-03T12:19:34.602Z,101031.06
2022-10-03T12:22:46.706Z,101025.72
2022-10-03T12:25:52.464Z,101019.25
2022-10-03T12:28:58.698Z,101017.59
2022-10-03T12:32:12.376Z,101020.31
2022-10-03T12:35:33.353Z,101013.63
2022-10-03T12:38:53.040Z,101009.06
2022-10-03T12:42:06.136Z,101015.94
2022-10-03T12:45:17.492Z,101016.78
2022-10-03T12:48:35.392Z,101015.94
2022-10-03T12:51:52.220Z,101011.78
2022-10-03T12:55:05.954Z,101008.88
2022-10-03T12:58:21.104Z,101020.00
2022-10-03T13:01:36.310Z,101021.66
2022-10-03T13:04:47.671Z,101015.34
2022-10-03T13:07:56.747Z,101027.84
2022-10-03T13:11:13.259Z,101038.31
2022-10-03T13:14:28.232Z,101036.91
2022-10-03T13:17:40.863Z,101032.56
2022-10-03T13:20:51.144Z,101043.28
2022-10-03T13:23:58.610Z,101033.38
2022-10-03T13:27:17.105Z,101037.16
2022-10-03T13:30:24.116Z,101039.78
2022-10-03T13:33:32.292Z,101035.63
2022-10-03T13:36:40.822Z,101032.34
2022-10-03T13:39:49.620Z,101030.28
2022-10-03T13:42:53.590Z,101020.66
2022-10-03T13:45:57.958Z,101020.34
2022-10-03T13:49:11.880Z,101011.47
2022-10-03T13:52:23.636Z,101022.22
2022-10-03T13:55:32.699Z,101021.00
2022-10-03T13:58:46.485Z,101021.94
2022-10-03T14:02:01.009Z,101024.97
2022-10-03T14:05:24.740Z,101018.50
2022-10-03T14:08:59.146Z,101019.63
2022-10-03T14:12:11.306Z,101019.88
2022-10-03T14:15:25.291Z,101015.78
2022-10-03T14:18:41.358Z,101017.53
2022-10-03T14:22:07.961Z,101015.03
2022-10-03T14:25:22.428Z,101022.78
2022-10-03T14:28:29.448Z,101025.47
2022-10-03T14:31:36.496Z,101025.63
2022-10-03T14:34:53.133Z,101029.31
2022-10-03T14:38:03.204Z,101031.06
2022-10-03T14:41:11.375Z,101029.22
2022-10-03T14:44:20.129Z,101021.22
2022-10-03T14:47:23.908Z,101021.56
2022-10-03T14:50:30.103Z,101021.59
2022-10-03T14:53:34.635Z,101012.31
2022-10-03T14:56:44.374Z,101007.13
2022-10-03T14:59:57.862Z,101005.88
2022-10-03T15:03:20.522Z,101009.13
2022-10-03T15:06:50.298Z,101012.97
2022-10-03T15:09:57.602Z,101005.34
2022-10-03T15:13:06.255Z,101010.59
2022-10-03T15:16:10.495Z,101019.38
2022-10-03T15:19:17.810Z,101012.53
2022-10-03T15:22:32.594Z,101020.22
2022-10-03T15:25:39.469Z,101014.47
2022-10-03T15:28:46.075Z,101015.44
2022-10-03T15:31:49.904Z,101011.81
2022-10-03T15:34:57.988Z,101010.88
2022-10-03T15:38:17.428Z,101023.94
2022-10-03T15:41:28.040Z,101008.31
2022-10-03T15:44:39.036Z,101016.19
2022-10-03T15:47:46.531Z,101015.81
2022-10-03T15:50:53.130Z,101017.88
2022-10-03T15:53:59.606Z,101019.34
2022-10-03T15:57:07.093Z,101020.28
2022-10-03T16:00:21.564Z,101014.13
2022-10-03T16:03:30.045Z,101013.31
2022-10-03T16:06:47.538Z,101014.72
2022-10-03T16:09:56.299Z,101012.69
2022-10-03T16:13:07.856Z,101018.19
2022-10-03T16:16:19.950Z,101022.97
2022-10-03T16:19:39.387Z,101023.84
2022-10-03T16:22:45.479Z,101022.28
2022-10-03T16:25:53.725Z,101014.19
2022-10-03T16:29:11.687Z,101022.91
2022-10-03T16:32:18.528Z,101020.25
2022-10-03T16:35:33.692Z,101013.28
2022-10-03T16:38:38.474Z,101008.25
2022-10-03T16:41:44.011Z,101018.56
2022-10-03T16:44:55.365Z,101015.19
2022-10-03T16:48:19.414Z,101012.66
2022-10-03T16:51:25.740Z,101010.22
2022-10-03T16:54:29.068Z,101009.41
2022-10-03T16:57:41.124Z,101010.34
2022-10-03T17:01:09.409Z,101015.91
2022-10-03T17:04:23.634Z,101009.06
2022-10-03T17:07:31.671Z,101021.38
2022-10-03T17:10:38.076Z,101020.56
2022-10-03T17:13:46.881Z,101023.50
2022-10-03T17:17:02.707Z,101012.25
2022-10-03T17:20:14.085Z,101020.13
2022-10-03T17:23:27.740Z,101009.66
2022-10-03T17:26:37.574Z,101014.13
2022-10-03T17:29:49.043Z,101013.50
2022-10-03T17:32:58.081Z,101011.75
2022-10-03T17:36:22.979Z,101003.28
2022-10-03T17:39:39.942Z,101001.44
2022-10-03T17:42:45.487Z,101013.06
2022-10-03T17:45:56.343Z,101008.19
2022-10-03T17:49:08.024Z,101008.97
2022-10-03T17:52:23.489Z,100998.31
2022-10-03T17:55:30.640Z,101013.59
2022-10-03T17:58:34.409Z,101008.97
2022-10-03T18:01:43.335Z,101009.31
2022-10-03T18:04:55.441Z,101009.81
2022-10-03T18:08:04.240Z,101013.22
2022-10-03T18:11:23.656Z,101004.69
2022-10-03T18:14:38.285Z,101009.41
2022-10-03T18:18:00.281Z,101010.97
2022-10-03T18:21:08.685Z,101004.81
2022-10-03T18:24:24.927Z,101008.91
2022-10-03T18:27:53.335Z,101009.09
2022-10-03T18:30:59.860Z,101007.53
2022-10-03T18:34:10.358Z,101007.50
2022-10-03T18:37:52.561Z,101003.13
2022-10-03T18:40:59.332Z,100995.06
2022-10-03T18:44:03.105Z,100995.47
2022-10-03T18:47:18.553Z,100993.31
2022-10-03T18:50:27.528Z,100992.84
2022-10-03T18:53:36.336Z,100998.75
2022-10-03T18:56:41.770Z,100999.91
2022-10-03T18:59:51.644Z,101008.97
2022-10-03T19:02:57.464Z,101013.59
2022-10-03T19:06:06.032Z,101014.22
2022-10-03T19:09:19.618Z,101004.69
2022-10-03T19:12:24.639Z,101012.16
2022-10-03T19:15:42.573Z,101007.31
2022-10-03T19:18:55.419Z,101007.25
2022-10-03T19:22:04.096Z,101006.22
2022-10-03T19:25:17.366Z,101011.06
2022-10-03T19:28:28.287Z,101004.28
2022-10-03T19:31:36.486Z,101007.84
2022-10-03T19:34:41.119Z,101010.91
2022-10-03T19:37:47.290Z,101007.91
2022-10-03T19:40:59.064Z,101005.63
2022-10-03T19:44:10.734Z,101005.53
2022-10-03T19:47:17.992Z,101005.19
2022-10-03T19:50:23.036Z,100998.41
2022-10-03T19:53:25.630Z,101002.59
2022-10-03T19:56:33.300Z,101009.72
2022-10-03T19:59:46.304Z,101006.31
2022-10-03T20:02:55.311Z,101005.69
2022-10-03T20:06:01.447Z,101006.06
2022-10-03T20:09:07.235Z,101009.41
2022-10-03T20:12:12.284Z,101002.59
2022-10-03T20:15:23.119Z,101001.69
2022-10-03T20:18:30.251Z,100999.06
2022-10-03T20:21:33.813Z,101002.66
2022-10-03T20:24:38.922Z,101004.34
2022-10-03T20:27:44.255Z,100994.63
2022-10-03T20:30:50.542Z,100996.53
2022-10-03T20:33:54.620Z,100990.00
2022-10-03T20:37:09.606Z,100985.94
2022-10-03T20:40:28.004Z,100989.81
2022-10-03T20:43:41.673Z,100981.56
2022-10-03T20:46:49.782Z,100990.69
2022-10-03T20:49:55.599Z,100993.50
2022-10-03T20:53:00.779Z,100984.91
2022-10-03T20:56:08.311Z,100990.50
2022-10-03T20:59:13.883Z,100991.13
2022-10-03T21:02:26.834Z,100997.34
2022-10-03T21:05:35.413Z,100988.63
2022-10-03T21:08:41.223Z,100991.69
2022-10-03T21:11:47.710Z,100995.19
2022-10-03T21:14:56.892Z,100992.66
2022-10-03T21:18:02.213Z,100998.19
2022-10-03T21:21:12.266Z,100987.97
2022-10-03T21:24:20.578Z,100992.66
2022-10-03T21:27:25.133Z,100986.81
2022-10-03T21:30:49.698Z,100988.72
2022-10-03T21:34:00.863Z,100991.22
2022-10-03T21:37:11.463Z,100984.59
2022-10-03T21:40:27.253Z,100981.59
2022-10-03T21:43:43.007Z,100982.06
2022-10-03T21:46:57.365Z,100984.97
2022-10-03T21:50:06.210Z,100978.81
2022-10-03T21:53:19.177Z,100986.06
2022-10-03T21:56:35.198Z,100983.94
2022-10-03T21:59:55.942Z,100980.22
2022-10-03T22:03:07.700Z,100982.78
2022-10-03T22:06:20.031Z,100988.22
2022-10-03T22:09:22.718Z,100982.66
2022-10-03T22:12:28.960Z,100976.81
2022-10-03T22:15:39.904Z,100969.56
2022-10-03T22:19:07.584Z,100973.09
2022-10-03T22:22:21.392Z,100959.47
2022-10-03T22:25:39.115Z,100974.56
2022-10-03T22:28:53.274Z,100975.34
2022-10-03T22:32:00.775Z,100966.75
2022-10-03T22:35:18.126Z,100974.19
2022-10-03T22:38:27.553Z,100983.72
2022-10-03T22:41:32.024Z,100974.94
2022-10-03T22:44:38.096Z,100978.78
2022-10-03T22:47:42.297Z,100980.78
2022-10-03T22:50:45.730Z,100984.97
2022-10-03T22:53:53.980Z,100976.72
2022-10-03T22:57:01.200Z,100976.06
2022-10-03T23:00:07.971Z,100982.03
2022-10-03T23:03:14.908Z,100973.94
2022-10-03T23:06:51.681Z,100971.50
2022-10-03T23:10:06.060Z,100969.75
2022-10-03T23:13:15.661Z,100974.69
2022-10-03T23:16:31.879Z,100980.94
2022-10-03T23:19:48.876Z,100985.84
2022-10-03T23:22:56.852Z,100981.34
2022-10-03T23:26:12.591Z,100974.72
2022-10-03T23:29:17.618Z,100975.88
2022-10-03T23:32:54.442Z,100980.22
2022-10-03T23:35:57.075Z,100977.63
2022-10-03T23:39:01.324Z,100974.28
2022-10-03T23:42:09.676Z,100981.56
2022-10-03T23:45:14.733Z,100978.84
2022-10-03T23:48:22.192Z,100980.94
2022-10-03T23:51:30.251Z,100981.06
2022-10-03T23:54:33.632Z,100988.00
2022-10-03T23:57:39.640Z,100990.94
